Time;durP1;ratioP1;P1;durP2;ratioP2;P2;SDS_P1;SDS_P2;PMS_P1;PMS_P2;Temp;Humidity;BMP_temperature;BMP_pressure;BME280_temperature;BME280_humidity;BME280_pressure;Samples;Min_cycle;Max_cycle;Signal;HPM_P1;HPM_P2
2021/12/19 00:09:31;;;;;;;22.13;14.83;;;;;;;6.06;97.54;103127.56;5093513;28;20514;-74
2021/12/19 00:11:58;;;;;;;27.17;13.53;;;;;;;6.10;97.52;103132.00;5092769;28;20227;-74
2021/12/19 00:14:25;;;;;;;22.93;14.17;;;;;;;6.08;97.26;103131.09;5095766;28;20211;-74
2021/12/19 00:16:53;;;;;;;22.27;14.00;;;;;;;6.13;97.08;103123.34;5096324;28;20189;-74
2021/12/19 00:19:21;;;;;;;19.03;12.00;;;;;;;6.15;97.20;103125.16;5096879;28;20166;-74
2021/12/19 00:21:47;;;;;;;34.87;12.10;;;;;;;6.14;96.75;103125.97;5096276;28;20185;-74
2021/12/19 00:24:14;;;;;;;17.37;11.80;;;;;;;6.15;96.88;103130.34;5096643;28;20259;-74
2021/12/19 00:26:41;;;;;;;20.90;13.47;;;;;;;6.22;96.65;103134.78;5096121;28;20209;-74
2021/12/19 00:29:08;;;;;;;21.57;13.10;;;;;;;6.13;96.48;103128.56;5094863;28;20190;-74
2021/12/19 00:31:34;;;;;;;16.23;12.37;;;;;;;6.20;96.73;103120.88;5096371;28;20597;-74
2021/12/19 00:34:01;;;;;;;18.67;12.00;;;;;;;6.04;96.95;103124.09;5095917;28;20212;-74
2021/12/19 00:36:28;;;;;;;18.57;11.27;;;;;;;6.09;97.07;103119.84;5096202;28;20651;-74
2021/12/19 00:38:54;;;;;;;17.40;12.80;;;;;;;6.04;97.01;103111.09;5095909;28;20260;-74
2021/12/19 00:41:21;;;;;;;18.93;12.73;;;;;;;6.12;97.01;103106.88;5095009;28;20616;-75
2021/12/19 00:43:55;;;;;;;20.17;12.33;;;;;;;6.14;96.86;103106.88;5095870;28;20228;-74
2021/12/19 00:46:25;;;;;;;21.03;12.93;;;;;;;6.12;97.05;103114.69;5096149;28;20621;-74
2021/12/19 00:48:53;;;;;;;16.10;11.77;;;;;;;6.07;97.18;103111.13;5096048;28;20596;-74
2021/12/19 00:51:24;;;;;;;18.07;11.63;;;;;;;6.11;97.02;103105.13;5096015;28;20235;-74
2021/12/19 00:53:53;;;;;;;15.60;11.20;;;;;;;6.06;97.10;103097.25;5095784;28;20221;-74
2021/12/19 00:56:21;;;;;;;15.17;10.90;;;;;;;6.14;97.26;103094.75;5095611;28;20189;-74
2021/12/19 00:58:47;;;;;;;14.97;11.27;;;;;;;6.07;97.16;103088.63;5095848;28;20178;-74
2021/12/19 01:01:15;;;;;;;19.93;12.13;;;;;;;6.07;97.26;103096.41;5094888;28;20205;-74
2021/12/19 01:03:46;;;;;;;20.57;12.00;;;;;;;6.15;97.18;103091.34;5095879;28;20182;-74
2021/12/19 01:06:17;;;;;;;16.77;11.77;;;;;;;6.08;97.39;103081.69;5095681;28;20211;-74
2021/12/19 01:08:44;;;;;;;27.43;13.27;;;;;;;6.00;97.81;103083.25;5095995;28;20174;-74
2021/12/19 01:11:10;;;;;;;28.10;14.83;;;;;;;6.07;97.78;103077.31;5095600;28;20186;-74
2021/12/19 01:13:37;;;;;;;30.07;16.33;;;;;;;6.00;98.03;103076.38;5095437;28;20188;-74
2021/12/19 01:16:04;;;;;;;36.63;17.80;;;;;;;6.05;97.97;103079.03;5093852;28;20694;-74
2021/12/19 01:18:30;;;;;;;39.03;18.33;;;;;;;6.06;97.90;103083.38;5095709;28;20197;-74
2021/12/19 01:20:57;;;;;;;32.30;18.60;;;;;;;5.98;98.11;103083.25;5093887;28;20201;-74
2021/12/19 01:23:23;;;;;;;35.17;18.10;;;;;;;6.03;98.40;103070.34;5093786;28;20193;-74
2021/12/19 01:25:51;;;;;;;28.53;15.80;;;;;;;6.13;97.78;103084.34;5094113;28;20260;-74
2021/12/19 01:28:18;;;;;;;28.87;16.60;;;;;;;6.12;97.77;103082.59;5096009;28;20191;-74
2021/12/19 01:30:45;;;;;;;28.57;16.50;;;;;;;6.08;97.79;103079.09;5095211;28;20653;-74
2021/12/19 01:33:12;;;;;;;27.63;14.40;;;;;;;6.02;97.98;103079.00;5094889;28;20196;-74
2021/12/19 01:35:39;;;;;;;24.93;13.77;;;;;;;6.09;97.96;103083.44;5094971;28;20206;-74
2021/12/19 01:38:05;;;;;;;22.23;13.63;;;;;;;6.01;97.80;103082.44;5095323;28;20186;-74
2021/12/19 01:40:32;;;;;;;28.13;14.63;;;;;;;6.04;97.99;103083.34;5095007;28;20186;-74
2021/12/19 01:42:59;;;;;;;23.17;12.57;;;;;;;6.03;98.07;103085.94;5095225;28;20190;-74
2021/12/19 01:45:35;;;;;;;22.40;10.63;;;;;;;6.04;97.54;103087.69;5094584;28;20771;-74
2021/12/19 01:48:09;;;;;;;16.90;12.60;;;;;;;6.06;97.73;103080.75;5094947;28;20181;-74
2021/12/19 01:50:36;;;;;;;20.37;11.47;;;;;;;6.08;97.63;103081.69;5094894;28;20177;-74
2021/12/19 01:53:05;;;;;;;17.97;10.87;;;;;;;6.08;97.45;103073.88;5094489;28;20192;-74
2021/12/19 01:55:32;;;;;;;18.00;12.03;;;;;;;6.04;97.45;103082.47;5094288;28;20231;-74
2021/12/19 01:57:59;;;;;;;24.27;11.43;;;;;;;6.06;96.87;103067.75;5094441;28;20186;-74
2021/12/19 02:00:30;;;;;;;19.10;11.10;;;;;;;6.04;97.35;103066.88;5094387;28;20189;-74
2021/12/19 02:02:57;;;;;;;14.43;10.93;;;;;;;6.06;97.52;103063.44;5094703;28;20540;-74
2021/12/19 02:05:26;;;;;;;17.47;11.23;;;;;;;6.00;97.48;103060.78;5094186;28;20225;-74
2021/12/19 02:07:55;;;;;;;19.00;10.97;;;;;;;5.98;97.72;103070.25;5094773;28;20182;-74
2021/12/19 02:10:25;;;;;;;12.53;9.93;;;;;;;6.06;97.57;103062.56;5094153;28;20193;-74
2021/12/19 02:12:53;;;;;;;12.30;10.70;;;;;;;6.01;97.30;103067.72;5094415;28;20190;-74
2021/12/19 02:15:22;;;;;;;12.73;9.10;;;;;;;5.98;97.55;103061.56;5094524;28;20205;-74
2021/12/19 02:17:52;;;;;;;12.03;8.23;;;;;;;6.04;97.36;103056.47;5094106;28;20221;-74
2021/12/19 02:20:20;;;;;;;10.40;8.30;;;;;;;5.99;97.04;103056.38;5094068;28;20204;-74
2021/12/19 02:22:47;;;;;;;8.60;7.67;;;;;;;6.02;97.00;103053.84;5093992;28;20189;-74
2021/12/19 02:25:15;;;;;;;9.97;8.07;;;;;;;5.98;97.06;103056.38;5092561;28;20683;-74
2021/12/19 02:27:42;;;;;;;8.90;8.00;;;;;;;6.02;97.01;103046.06;5094043;28;20200;-74
2021/12/19 02:30:10;;;;;;;8.57;7.80;;;;;;;5.95;97.03;103048.53;5094034;28;20186;-74
2021/12/19 02:32:39;;;;;;;8.93;8.10;;;;;;;5.92;97.01;103045.88;5093785;28;20231;-74
2021/12/19 02:35:11;;;;;;;7.33;6.70;;;;;;;5.96;97.16;103045.97;5094175;28;20204;-74
2021/12/19 02:48:10;;;;;;;7.80;6.77;;;;;;;5.97;96.85;103039.03;5094268;28;20171;-74
2021/12/19 02:48:38;;;;;;;8.00;7.20;;;;;;;5.92;96.70;103025.94;5082643;28;20681;-74
2021/12/19 02:51:06;;;;;;;7.53;7.13;;;;;;;5.94;96.53;103026.00;5093561;28;20185;-74
2021/12/19 02:53:36;;;;;;;7.67;7.20;;;;;;;5.94;96.49;103033.78;5093480;28;20190;-74
2021/12/19 02:56:06;;;;;;;8.00;7.13;;;;;;;5.92;96.63;103038.06;5093660;28;20205;-74
2021/12/19 02:58:34;;;;;;;7.20;6.70;;;;;;;5.91;96.60;103021.59;5093777;28;20193;-74
2021/12/19 03:01:04;;;;;;;6.63;6.17;;;;;;;5.89;96.70;103022.41;5093453;28;20255;-74
2021/12/19 03:03:31;;;;;;;7.37;6.97;;;;;;;5.89;96.68;103025.88;5093305;28;20182;-74
2021/12/19 03:05:58;;;;;;;7.30;6.63;;;;;;;5.83;96.95;103030.09;5093415;28;20197;-74
2021/12/19 03:08:25;;;;;;;9.37;7.43;;;;;;;5.96;96.62;103021.69;5092183;28;20189;-74
2021/12/19 03:11:40;;;;;;;7.63;6.93;;;;;;;5.88;96.76;103020.66;5093639;28;20216;-74
2021/12/19 03:19:11;;;;;;;7.90;7.30;;;;;;;5.93;96.77;103001.72;5094403;28;20496;-74
2021/12/19 03:21:38;;;;;;;8.27;7.17;;;;;;;5.98;96.26;103001.78;5093240;28;20195;-74
2021/12/19 03:24:05;;;;;;;8.33;7.57;;;;;;;5.98;96.15;102999.16;5092176;28;20217;-74
2021/12/19 03:26:31;;;;;;;6.50;6.30;;;;;;;6.03;96.18;103002.72;5093376;28;20247;-74
2021/12/19 03:28:58;;;;;;;6.30;6.03;;;;;;;5.92;96.34;102996.47;5093782;28;20236;-74
2021/12/19 03:31:24;;;;;;;6.90;6.40;;;;;;;5.95;96.31;102991.34;5093359;28;20182;-74
2021/12/19 03:33:50;;;;;;;6.47;6.07;;;;;;;5.88;96.33;102989.47;5092110;28;20247;-74
2021/12/19 03:36:17;;;;;;;5.37;5.17;;;;;;;5.86;96.53;102978.16;5093026;28;20206;-74
2021/12/19 03:38:44;;;;;;;5.57;5.37;;;;;;;5.95;96.61;102993.94;5093314;28;20197;-74
2021/12/19 03:43:39;;;;;;;6.00;5.80;;;;;;;6.00;96.51;102972.34;5091665;28;20655;-74
2021/12/19 03:46:05;;;;;;;5.97;5.77;;;;;;;5.98;96.37;102975.75;5091889;28;20185;-74
2021/12/19 03:48:32;;;;;;;6.17;5.80;;;;;;;5.90;96.54;102961.75;5093568;28;20187;-74
2021/12/19 03:50:59;;;;;;;6.03;5.80;;;;;;;5.87;96.91;102969.53;5097428;28;20190;-74
2021/12/19 03:53:26;;;;;;;6.23;6.03;;;;;;;5.91;96.59;102959.22;5096798;28;20192;-74
2021/12/19 03:55:52;;;;;;;6.50;6.03;;;;;;;5.96;96.67;102957.56;5097053;28;20194;-74
2021/12/19 03:58:20;;;;;;;7.43;6.83;;;;;;;5.89;96.91;102960.00;5097247;28;20255;-74
2021/12/19 04:00:49;;;;;;;5.90;5.70;;;;;;;5.94;96.76;102950.59;5096677;28;20193;-74
2021/12/19 04:03:20;;;;;;;6.87;6.27;;;;;;;5.85;97.03;102947.81;5096890;28;20186;-74
2021/12/19 04:05:51;;;;;;;6.43;6.03;;;;;;;5.88;96.99;102945.28;5096538;28;20201;-74
2021/12/19 04:08:19;;;;;;;6.50;6.07;;;;;;;5.83;97.29;102950.41;5097088;28;20235;-74
2021/12/19 04:10:48;;;;;;;6.63;6.17;;;;;;;5.76;97.34;102949.44;5096741;28;20716;-74
2021/12/19 04:13:17;;;;;;;5.57;5.23;;;;;;;5.71;97.58;102947.59;5096962;28;20546;-74
2021/12/19 04:15:44;;;;;;;5.80;5.60;;;;;;;5.77;97.62;102956.38;5096240;28;20214;-73
2021/12/19 04:18:11;;;;;;;5.80;5.43;;;;;;;5.73;97.64;102948.53;5096321;28;20264;-73
2021/12/19 04:20:37;;;;;;;5.77;5.33;;;;;;;5.75;97.57;102944.22;5096599;28;20190;-73
2021/12/19 04:23:04;;;;;;;5.43;4.90;;;;;;;5.70;97.63;102931.13;5096239;28;20261;-73
2021/12/19 04:25:30;;;;;;;4.73;4.33;;;;;;;5.64;97.46;102931.03;5095305;28;20198;-74
2021/12/19 04:27:57;;;;;;;5.47;5.27;;;;;;;5.52;97.50;102925.69;5096129;28;20197;-74
2021/12/19 04:30:25;;;;;;;6.07;4.57;;;;;;;5.57;97.42;102929.22;5096155;28;20193;-74
2021/12/19 04:33:02;;;;;;;5.70;5.23;;;;;;;5.52;97.10;102928.28;5096115;28;20190;-74
2021/12/19 04:35:33;;;;;;;9.37;4.50;;;;;;;5.45;96.94;102927.31;5096203;28;20229;-74
2021/12/19 04:56:32;;;;;;;4.03;3.83;;;;;;;5.48;96.35;102916.09;5095551;28;20205;-74
2021/12/19 05:04:24;;;;;;;4.83;4.53;;;;;;;5.40;95.63;102915.09;5095644;28;20736;-74
2021/12/19 05:14:53;;;;;;;4.27;3.97;;;;;;;5.43;95.63;102907.34;5095492;28;20212;-74
2021/12/19 05:17:24;;;;;;;3.80;3.53;;;;;;;5.47;95.54;102907.41;5094503;28;20202;-74
2021/12/19 05:20:06;;;;;;;4.90;4.40;;;;;;;5.45;95.53;102909.13;5095446;28;20624;-74
2021/12/19 05:22:38;;;;;;;5.50;5.20;;;;;;;5.42;95.75;102905.59;5095712;28;20612;-74
2021/12/19 05:25:14;;;;;;;3.53;3.53;;;;;;;5.36;95.26;102900.31;5095187;28;20289;-74
2021/12/19 05:27:43;;;;;;;3.30;3.13;;;;;;;5.30;95.34;102908.03;5094958;28;20225;-74
2021/12/19 05:30:10;;;;;;;5.67;3.83;;;;;;;5.29;95.27;102906.25;5095263;28;20524;-74
2021/12/19 05:32:37;;;;;;;3.13;3.03;;;;;;;5.31;94.86;102904.56;5095485;28;20239;-74
2021/12/19 05:35:04;;;;;;;3.67;3.37;;;;;;;5.29;95.12;102906.25;5093470;28;20256;-73
2021/12/19 05:45:45;;;;;;;5.13;4.80;;;;;;;5.30;95.21;102902.84;5094630;28;20197;-73
2021/12/19 05:48:12;;;;;;;4.40;4.10;;;;;;;5.20;95.47;102894.88;5093456;28;20189;-73
2021/12/19 05:50:39;;;;;;;3.50;3.30;;;;;;;5.21;95.45;102894.06;5094529;28;20190;-73
2021/12/19 05:53:06;;;;;;;3.77;3.63;;;;;;;5.27;95.36;102884.59;5094538;28;20239;-73
2021/12/19 05:55:32;;;;;;;3.53;3.33;;;;;;;5.22;95.61;102894.91;5094617;28;20239;-73
2021/12/19 05:57:59;;;;;;;3.40;3.20;;;;;;;5.19;95.81;102903.50;5093282;28;20193;-73
2021/12/19 06:00:26;;;;;;;3.17;3.07;;;;;;;5.21;96.13;102898.34;5094882;28;20186;-73
2021/12/19 06:02:52;;;;;;;2.90;2.90;;;;;;;5.20;96.25;102894.00;5094374;28;20272;-73
2021/12/19 06:05:19;;;;;;;3.23;3.03;;;;;;;5.17;96.30;102892.25;5094420;28;20213;-75
2021/12/19 06:07:46;;;;;;;3.93;3.67;;;;;;;5.17;96.19;102892.25;5094228;28;20231;-74
2021/12/19 06:10:12;;;;;;;4.27;3.83;;;;;;;5.15;96.41;102895.66;5094706;28;20182;-74
2021/12/19 06:12:39;;;;;;;4.70;3.90;;;;;;;5.13;96.65;102900.81;5094232;28;20186;-74
2021/12/19 06:15:11;;;;;;;3.90;3.60;;;;;;;5.19;96.57;102890.53;5094127;28;20209;-74
2021/12/19 06:17:42;;;;;;;3.67;3.57;;;;;;;5.17;96.37;102881.84;5094577;28;20178;-74
2021/12/19 06:20:10;;;;;;;5.13;5.03;;;;;;;5.24;96.32;102875.91;5094399;28;20189;-74
2021/12/19 06:22:38;;;;;;;4.40;4.30;;;;;;;5.16;96.47;102877.50;5094299;28;20188;-74
2021/12/19 06:25:06;;;;;;;5.73;5.33;;;;;;;5.20;96.29;102881.88;5094163;28;20213;-74
2021/12/19 06:27:32;;;;;;;5.37;5.07;;;;;;;5.17;96.47;102875.78;5093791;28;20193;-74
2021/12/19 06:29:59;;;;;;;5.20;4.90;;;;;;;5.25;96.31;102884.56;5094210;28;20178;-74
2021/12/19 06:32:25;;;;;;;5.20;4.90;;;;;;;5.25;96.41;102879.38;5094361;28;20623;-74
2021/12/19 06:34:52;;;;;;;5.70;4.27;;;;;;;5.23;96.55;102878.50;5093716;28;20210;-74
2021/12/19 06:37:18;;;;;;;4.97;4.57;;;;;;;5.23;96.83;102874.16;5094259;28;20275;-74
2021/12/19 06:39:47;;;;;;;4.73;4.53;;;;;;;5.24;96.91;102867.25;5093701;28;20196;-74
2021/12/19 06:42:13;;;;;;;4.73;4.53;;;;;;;5.20;97.10;102863.72;5093718;28;20311;-74
2021/12/19 06:44:40;;;;;;;4.27;4.10;;;;;;;5.28;96.87;102852.56;5092424;28;20212;-74
2021/12/19 06:47:07;;;;;;;5.33;4.60;;;;;;;5.17;97.07;102853.28;5093603;28;20186;-74
2021/12/19 06:49:34;;;;;;;4.43;4.33;;;;;;;5.08;97.29;102852.28;5093936;28;20178;-74
2021/12/19 06:52:00;;;;;;;4.77;4.47;;;;;;;5.06;97.34;102843.56;5093772;28;20181;-74
2021/12/19 06:54:26;;;;;;;6.00;5.47;;;;;;;5.13;97.14;102843.69;5093425;28;20212;-74
2021/12/19 06:56:53;;;;;;;4.73;4.47;;;;;;;5.18;97.17;102842.03;5093524;28;20190;-75
2021/12/19 06:59:19;;;;;;;7.23;6.50;;;;;;;5.21;97.05;102849.91;5092211;28;20193;-73
2021/12/19 07:01:46;;;;;;;10.27;7.07;;;;;;;5.12;97.49;102847.16;5093492;28;20186;-73
2021/12/19 07:04:12;;;;;;;9.07;8.13;;;;;;;5.13;97.23;102845.41;5093337;28;20216;-75
2021/12/19 07:06:39;;;;;;;9.57;8.50;;;;;;;5.19;97.12;102835.13;5093717;28;20177;-74
2021/12/19 07:09:06;;;;;;;8.73;7.93;;;;;;;5.17;97.47;102837.72;5093382;28;20200;-74
2021/12/19 07:11:32;;;;;;;8.93;8.07;;;;;;;5.24;97.24;102834.34;5093355;28;20182;-74
2021/12/19 07:13:59;;;;;;;8.10;7.40;;;;;;;5.25;97.14;102830.91;5092330;28;20594;-74
2021/12/19 07:16:26;;;;;;;9.00;7.73;;;;;;;5.29;97.12;102830.94;5093756;28;20197;-74
2021/12/19 07:18:52;;;;;;;9.70;8.80;;;;;;;5.22;97.63;102827.41;5093211;28;20686;-74
2021/12/19 07:21:19;;;;;;;19.73;12.37;;;;;;;5.25;97.35;102827.44;5093233;28;20554;-74
2021/12/19 07:23:46;;;;;;;16.97;11.60;;;;;;;5.23;97.41;102830.00;5095410;28;20578;-74
2021/12/19 07:26:13;;;;;;;9.67;8.50;;;;;;;5.27;97.34;102825.72;5096104;28;20186;-74
2021/12/19 07:28:40;;;;;;;8.83;7.33;;;;;;;5.23;97.26;102827.41;5096729;28;20611;-74
2021/12/19 07:31:07;;;;;;;6.37;5.97;;;;;;;5.20;97.81;102824.75;5096049;28;20197;-74
2021/12/19 07:33:33;;;;;;;9.63;7.50;;;;;;;5.31;97.56;102830.13;5097172;28;20170;-74
2021/12/19 07:36:01;;;;;;;8.97;8.20;;;;;;;5.31;97.50;102831.84;5097112;28;20205;-74
2021/12/19 07:38:33;;;;;;;9.80;7.40;;;;;;;5.23;97.73;102832.63;5097123;28;20224;-74
2021/12/19 07:41:01;;;;;;;8.00;7.20;;;;;;;5.35;97.72;102838.81;5097691;28;20239;-74
2021/12/19 07:43:28;;;;;;;7.73;7.10;;;;;;;5.38;97.87;102831.97;5097547;28;20193;-74
2021/12/19 07:45:56;;;;;;;7.63;7.03;;;;;;;5.38;97.79;102831.97;5097317;28;20174;-74
2021/12/19 07:48:23;;;;;;;6.27;5.67;;;;;;;5.39;97.80;102836.28;5097261;28;20174;-74
2021/12/19 07:50:49;;;;;;;11.73;8.17;;;;;;;5.48;97.71;102830.34;5097436;28;20186;-74
2021/12/19 07:53:16;;;;;;;10.33;8.87;;;;;;;5.45;97.80;102820.81;5096888;28;20190;-74
2021/12/19 07:55:43;;;;;;;10.10;8.27;;;;;;;5.42;97.80;102820.75;5096681;28;20206;-74
2021/12/19 07:58:10;;;;;;;9.10;8.30;;;;;;;5.44;98.00;102818.19;5096767;28;20190;-74
2021/12/19 08:00:37;;;;;;;9.67;7.33;;;;;;;5.47;97.99;102818.22;5096738;28;20185;-74
2021/12/19 08:03:03;;;;;;;8.83;7.97;;;;;;;5.44;97.98;102813.00;5095400;28;20632;-74
2021/12/19 08:05:30;;;;;;;7.47;6.73;;;;;;;5.56;97.70;102807.94;5095649;28;20214;-74
2021/12/19 08:08:01;;;;;;;12.87;7.43;;;;;;;5.51;97.68;102805.31;5095496;28;20235;-74
2021/12/19 08:12:59;;;;;;;9.20;7.07;;;;;;;5.46;98.33;102809.56;5097532;28;20557;-74
2021/12/19 08:15:26;;;;;;;11.07;7.37;;;;;;;5.55;98.07;102795.81;5095475;28;20214;-74
2021/12/19 08:17:53;;;;;;;10.67;7.63;;;;;;;5.47;97.96;102803.50;5095052;28;20213;-74
2021/12/19 08:20:20;;;;;;;14.47;8.87;;;;;;;5.50;98.19;102807.84;5095161;28;20223;-74
2021/12/19 08:22:48;;;;;;;13.47;8.50;;;;;;;5.51;98.20;102801.84;5096450;28;20183;-74
2021/12/19 08:25:15;;;;;;;15.60;8.37;;;;;;;5.49;98.23;102806.97;5095997;28;20217;-74
2021/12/19 08:27:42;;;;;;;13.20;8.47;;;;;;;5.47;98.36;102803.50;5095716;28;20182;-74
2021/12/19 08:30:11;;;;;;;16.17;9.63;;;;;;;5.49;98.24;102798.31;5096495;28;20239;-74
2021/12/19 08:32:38;;;;;;;12.57;8.97;;;;;;;5.46;98.46;102804.34;5096668;28;20178;-74
2021/12/19 08:35:07;;;;;;;16.53;8.87;;;;;;;5.54;98.12;102796.66;5095838;28;20240;-74
2021/12/19 08:37:34;;;;;;;11.33;8.70;;;;;;;5.54;98.51;102799.25;5096779;28;20510;-74
2021/12/19 08:40:00;;;;;;;20.23;9.97;;;;;;;5.54;98.50;102801.88;5096120;28;20516;-74
2021/12/19 08:42:32;;;;;;;16.03;9.70;;;;;;;5.54;98.58;102796.66;5096559;28;20208;-74
2021/12/19 08:44:58;;;;;;;14.30;9.10;;;;;;;5.56;98.47;102794.94;5096383;28;20202;-74
2021/12/19 08:47:25;;;;;;;14.87;8.97;;;;;;;5.56;98.44;102800.16;5096172;28;20178;-74
2021/12/19 08:49:51;;;;;;;14.77;9.43;;;;;;;5.61;98.42;102789.81;5094552;28;20199;-74
2021/12/19 08:52:18;;;;;;;17.70;9.97;;;;;;;5.51;98.39;102784.53;5096283;28;20174;-74
2021/12/19 08:54:44;;;;;;;8.37;6.67;;;;;;;5.45;98.27;102786.16;5094768;28;20202;-74
2021/12/19 08:57:11;;;;;;;6.17;5.87;;;;;;;5.48;98.30;102789.66;5095918;28;20210;-74
2021/12/19 08:59:37;;;;;;;7.67;5.50;;;;;;;5.56;97.96;102786.28;5094557;28;20227;-74
2021/12/19 09:02:04;;;;;;;7.33;4.83;;;;;;;5.51;98.07;102779.31;5095544;28;20231;-74
2021/12/19 09:04:31;;;;;;;5.60;5.20;;;;;;;5.51;97.97;102783.66;5096087;28;20201;-74
2021/12/19 09:06:59;;;;;;;6.67;5.30;;;;;;;5.58;98.07;102789.81;5095795;28;20173;-74
2021/12/19 09:09:25;;;;;;;8.47;6.43;;;;;;;5.62;98.13;102794.16;5095479;28;20178;-74
2021/12/19 09:11:52;;;;;;;11.37;6.33;;;;;;;5.69;97.89;102786.47;5094370;28;20186;-74
2021/12/19 09:14:19;;;;;;;7.97;7.17;;;;;;;5.72;97.67;102786.50;5095291;28;20202;-74
2021/12/19 09:16:45;;;;;;;8.50;5.90;;;;;;;5.77;97.93;102786.56;5095153;28;20270;-74
2021/12/19 09:19:13;;;;;;;4.20;3.93;;;;;;;5.66;96.98;102778.63;5095724;28;20250;-74
2021/12/19 09:21:41;;;;;;;2.43;2.43;;;;;;;5.63;96.25;102778.59;5095129;28;20193;-75
2021/12/19 09:24:08;;;;;;;2.67;2.57;;;;;;;5.65;96.69;102787.28;5095482;28;20213;-75
2021/12/19 09:26:35;;;;;;;2.20;2.20;;;;;;;5.57;96.09;102783.69;5094948;28;20194;-75
2021/12/19 09:29:02;;;;;;;1.80;1.80;;;;;;;5.67;95.85;102789.91;5095304;28;20216;-74
2021/12/19 09:31:29;;;;;;;2.87;1.90;;;;;;;5.65;95.68;102787.28;5094003;28;20202;-74
2021/12/19 09:33:55;;;;;;;1.77;1.77;;;;;;;5.72;95.04;102788.25;5095129;28;20202;-74
2021/12/19 09:36:23;;;;;;;1.60;1.60;;;;;;;5.82;95.23;102784.00;5095076;28;20197;-74
2021/12/19 09:38:50;;;;;;;1.57;1.57;;;;;;;5.89;95.09;102786.69;5095058;28;20182;-74
2021/12/19 09:41:27;;;;;;;1.10;1.00;;;;;;;5.85;94.60;102784.03;5095552;28;20185;-74
2021/12/19 09:43:58;;;;;;;1.17;1.17;;;;;;;5.83;94.76;102784.03;5095002;28;20267;-75
2021/12/19 09:46:29;;;;;;;1.47;1.43;;;;;;;5.78;94.85;102781.38;5094379;28;20261;-75
2021/12/19 09:48:57;;;;;;;3.40;1.50;;;;;;;5.70;95.04;102785.59;5095002;28;20183;-75
2021/12/19 09:51:24;;;;;;;1.40;1.40;;;;;;;5.77;95.14;102781.34;5094635;28;20232;-75
2021/12/19 09:53:50;;;;;;;1.30;1.30;;;;;;;5.82;95.59;102778.81;5094424;28;20213;-75
2021/12/19 09:56:17;;;;;;;1.43;1.43;;;;;;;5.76;95.90;102770.09;5094516;28;20196;-75
2021/12/19 09:58:43;;;;;;;5.43;1.93;;;;;;;5.84;95.74;102766.69;5094475;28;20190;-75
2021/12/19 10:01:12;;;;;;;1.60;1.60;;;;;;;5.76;95.88;102758.81;5094966;28;20182;-75
2021/12/19 10:03:39;;;;;;;1.30;1.30;;;;;;;5.71;95.85;102761.34;5094628;28;20646;-75
2021/12/19 10:06:11;;;;;;;1.67;1.67;;;;;;;5.75;95.92;102759.69;5094941;28;20666;-75
2021/12/19 10:08:39;;;;;;;1.50;1.50;;;;;;;5.78;95.97;102763.16;5093264;28;20201;-75
2021/12/19 10:11:13;;;;;;;1.97;1.97;;;;;;;5.80;95.94;102761.47;5094525;28;20673;-75
2021/12/19 10:13:40;;;;;;;1.50;1.50;;;;;;;5.86;95.51;102758.09;5094707;28;20189;-74
2021/12/19 10:16:27;;;;;;;1.17;1.17;;;;;;;5.91;95.14;102753.81;5094183;28;20201;-74
2021/12/19 10:18:57;;;;;;;1.47;1.43;;;;;;;6.08;95.34;102751.41;5094605;28;20166;-75
2021/12/19 10:21:24;;;;;;;0.80;0.80;;;;;;;5.98;95.00;102753.03;5094688;28;20174;-75
2021/12/19 10:23:51;;;;;;;1.07;1.03;;;;;;;6.04;95.10;102739.22;5092642;28;20304;-75
2021/12/19 10:26:17;;;;;;;1.77;1.73;;;;;;;6.10;95.40;102743.63;5093900;28;20214;-75
2021/12/19 10:28:50;;;;;;;1.80;1.37;;;;;;;6.18;95.53;102732.44;5092735;28;20182;-75
2021/12/19 10:31:17;;;;;;;1.50;1.50;;;;;;;6.16;95.32;102726.34;5094101;28;20189;-75
2021/12/19 10:33:45;;;;;;;1.20;1.20;;;;;;;6.04;94.51;102726.22;5092776;28;20235;-75
2021/12/19 10:36:12;;;;;;;1.27;1.27;;;;;;;6.02;94.13;102725.34;5092896;28;20186;-76
2021/12/19 10:38:43;;;;;;;5.63;1.40;;;;;;;5.94;94.36;102721.81;5093608;28;20194;-75
2021/12/19 10:41:22;;;;;;;1.40;1.40;;;;;;;5.96;93.96;102715.75;5094305;28;20174;-75
2021/12/19 10:44:10;;;;;;;0.80;0.80;;;;;;;6.03;94.39;102711.47;5094142;28;20177;-75
2021/12/19 10:46:39;;;;;;;1.47;1.47;;;;;;;5.93;93.95;102704.44;5094214;28;20558;-75
2021/12/19 10:49:22;;;;;;;1.13;1.13;;;;;;;6.04;94.33;102700.22;5092360;28;20201;-75
2021/12/19 10:51:49;;;;;;;1.60;1.10;;;;;;;6.11;93.69;102707.22;5093538;28;20207;-75
2021/12/19 10:54:16;;;;;;;1.30;1.30;;;;;;;6.27;93.45;102698.69;5093806;28;20686;-74
2021/12/19 10:56:43;;;;;;;0.83;0.83;;;;;;;6.42;93.45;102689.25;5093455;28;20189;-74
2021/12/19 10:59:14;;;;;;;1.20;1.20;;;;;;;6.44;91.74;102684.97;5094068;28;20638;-75
2021/12/19 11:01:44;;;;;;;1.00;1.00;;;;;;;6.33;91.23;102687.47;5093747;28;20189;-75
2021/12/19 11:04:16;;;;;;;1.27;1.27;;;;;;;6.42;91.73;102686.66;5093956;28;20220;-75
2021/12/19 11:06:51;;;;;;;1.07;1.07;;;;;;;6.41;91.79;102671.91;5092686;28;20551;-75
2021/12/19 11:09:19;;;;;;;1.23;1.20;;;;;;;6.26;92.10;102677.88;5092416;28;20186;-75
2021/12/19 11:11:48;;;;;;;1.50;1.50;;;;;;;6.25;92.60;102686.53;5093349;28;20243;-75
2021/12/19 11:14:25;;;;;;;1.60;1.60;;;;;;;6.21;92.89;102675.22;5093597;28;20205;-75
2021/12/19 11:16:55;;;;;;;1.40;1.40;;;;;;;5.98;93.22;102671.56;5093519;28;20604;-74
2021/12/19 11:19:22;;;;;;;1.10;1.10;;;;;;;5.93;94.35;102670.63;5094127;28;20635;-74
2021/12/19 11:22:09;;;;;;;1.27;1.27;;;;;;;5.86;94.47;102669.69;5092192;28;20182;-75
2021/12/19 11:24:36;;;;;;;1.47;1.47;;;;;;;5.81;95.04;102663.56;5092326;28;20206;-75
2021/12/19 11:27:06;;;;;;;1.20;1.20;;;;;;;5.84;95.32;102663.59;5093348;28;20189;-75
2021/12/19 11:29:33;;;;;;;1.50;1.50;;;;;;;5.82;95.56;102659.25;5093179;28;20189;-75
2021/12/19 11:32:03;;;;;;;1.53;1.53;;;;;;;5.91;95.43;102659.34;5092302;28;20523;-75
2021/12/19 11:35:07;;;;;;;1.50;1.50;;;;;;;5.97;95.18;102654.22;5093110;28;20577;-75
2021/12/19 11:37:51;;;;;;;1.27;1.27;;;;;;;5.99;94.95;102652.50;5093371;28;20678;-75
2021/12/19 11:40:19;;;;;;;1.63;1.63;;;;;;;5.96;94.40;102653.34;5093401;28;20185;-75
2021/12/19 11:42:46;;;;;;;1.73;1.73;;;;;;;5.94;94.55;102655.06;5093118;28;20194;-75
2021/12/19 11:45:34;;;;;;;1.40;1.40;;;;;;;6.02;94.81;102650.81;5092981;28;20214;-75
2021/12/19 11:48:18;;;;;;;1.20;1.10;;;;;;;5.97;93.04;102647.28;5093613;28;20170;-75
2021/12/19 11:50:50;;;;;;;1.50;1.50;;;;;;;6.00;93.32;102639.53;5093868;28;20554;-75
2021/12/19 11:53:17;;;;;;;1.33;1.33;;;;;;;6.01;92.94;102641.28;5093597;28;20174;-75
2021/12/19 11:55:49;;;;;;;1.20;1.20;;;;;;;6.02;92.78;102624.81;5093257;28;20201;-74
2021/12/19 11:58:19;;;;;;;1.43;1.43;;;;;;;5.91;92.64;102621.22;5091924;28;20214;-74
2021/12/19 12:00:55;;;;;;;1.80;1.80;;;;;;;5.94;93.16;102625.59;5093532;28;20236;-75
2021/12/19 12:03:28;;;;;;;1.40;1.40;;;;;;;5.92;93.68;102625.56;5093142;28;20204;-75
2021/12/19 12:05:57;;;;;;;1.70;1.70;;;;;;;5.95;93.67;102625.63;5093204;28;20209;-74
2021/12/19 12:08:26;;;;;;;1.67;1.57;;;;;;;5.92;93.87;102624.69;5091595;28;20182;-74
2021/12/19 12:10:57;;;;;;;2.10;1.83;;;;;;;5.97;94.21;102612.63;5097067;28;20235;-74
2021/12/19 12:13:34;;;;;;;1.60;1.60;;;;;;;5.97;94.27;102612.63;5096550;28;20186;-74
2021/12/19 12:16:19;;;;;;;1.53;1.53;;;;;;;5.88;94.44;102609.91;5095633;28;20680;-74
2021/12/19 12:18:58;;;;;;;1.60;1.60;;;;;;;5.91;94.78;102602.16;5096354;28;20204;-74
2021/12/19 12:21:31;;;;;;;2.43;2.33;;;;;;;5.97;94.56;102602.22;5096442;28;20650;-74
2021/12/19 12:24:15;;;;;;;2.43;2.43;;;;;;;5.97;94.21;102597.88;5096333;28;20690;-74
2021/12/19 12:26:54;;;;;;;2.77;2.63;;;;;;;5.97;94.21;102591.81;5096513;28;20190;-74
2021/12/19 12:29:21;;;;;;;2.70;2.50;;;;;;;6.00;94.23;102581.44;5096815;28;20513;-74
2021/12/19 12:31:49;;;;;;;2.80;2.80;;;;;;;6.01;93.94;102580.59;5094956;28;20198;-74
2021/12/19 12:34:17;;;;;;;3.83;3.33;;;;;;;5.97;94.36;102571.03;5094774;28;20617;-74
2021/12/19 12:36:45;;;;;;;3.33;3.23;;;;;;;5.96;94.53;102574.50;5096650;28;20193;-74
2021/12/19 12:39:18;;;;;;;2.53;2.53;;;;;;;6.05;94.14;102564.16;5095963;28;20628;-74
2021/12/19 12:44:15;;;;;;;4.90;4.63;;;;;;;6.00;94.44;102560.63;5096105;28;20259;-74
2021/12/19 12:46:42;;;;;;;4.07;3.77;;;;;;;5.95;94.44;102560.63;5096488;28;20311;-74